createdAt,value
2023-05-09T00:02:10.024Z,4.90
2023-05-09T00:04:42.505Z,5.10
2023-05-09T00:07:14.368Z,5.00
2023-05-09T00:09:46.070Z,5.28
2023-05-09T00:12:17.756Z,5.63
2023-05-09T00:14:51.756Z,4.60
2023-05-09T00:17:24.882Z,5.20
2023-05-09T00:19:56.609Z,4.80
2023-05-09T00:22:28.294Z,4.90
2023-05-09T00:25:00.047Z,4.80
2023-05-09T00:27:31.831Z,4.38
2023-05-09T00:30:05.085Z,4.90
2023-05-09T00:32:37.315Z,4.90
2023-05-09T00:35:10.297Z,4.60
2023-05-09T00:37:42.111Z,5.32
2023-05-09T00:40:14.064Z,5.38
2023-05-09T00:42:45.826Z,4.90
2023-05-09T00:45:17.697Z,5.15
2023-05-09T00:47:49.764Z,5.07
2023-05-09T00:50:21.999Z,4.78
2023-05-09T00:52:53.838Z,4.95
2023-05-09T00:55:26.610Z,4.90
2023-05-09T00:57:58.588Z,4.85
2023-05-09T01:00:30.488Z,4.95
2023-05-09T01:03:02.785Z,4.90
2023-05-09T01:05:52.061Z,4.57
2023-05-09T01:08:38.381Z,4.68
2023-05-09T01:11:21.550Z,5.40
2023-05-09T01:14:15.797Z,5.05
2023-05-09T01:17:01.958Z,4.75
2023-05-09T01:20:13.797Z,4.80
2023-05-09T01:22:55.607Z,4.95
2023-05-09T01:25:49.227Z,5.68
2023-05-09T01:28:34.432Z,4.93
2023-05-09T01:31:08.410Z,4.93
2023-05-09T01:33:42.654Z,4.47
2023-05-09T01:36:18.083Z,5.32
2023-05-09T01:38:52.696Z,4.70
2023-05-09T01:41:30.541Z,4.45
2023-05-09T01:44:05.334Z,4.75
2023-05-09T01:46:38.235Z,4.75
2023-05-09T01:49:11.847Z,4.57
2023-05-09T01:51:45.061Z,4.90
2023-05-09T01:54:17.934Z,5.18
2023-05-09T01:56:49.905Z,4.63
2023-05-09T01:59:23.338Z,4.55
2023-05-09T02:01:56.376Z,4.70
2023-05-09T02:04:29.353Z,4.60
2023-05-09T02:07:02.598Z,4.78
2023-05-09T02:09:34.604Z,4.55
2023-05-09T02:12:07.045Z,5.05
2023-05-09T02:14:38.881Z,5.25
2023-05-09T02:17:11.413Z,4.70
2023-05-09T02:19:44.401Z,4.60
2023-05-09T02:22:16.267Z,4.75
2023-05-09T02:24:48.137Z,5.22
2023-05-09T02:27:21.739Z,5.30
2023-05-09T02:29:57.538Z,4.88
2023-05-09T02:32:32.477Z,4.80
2023-05-09T02:35:06.551Z,5.32
2023-05-09T02:37:38.936Z,5.90
2023-05-09T02:40:12.464Z,4.53
2023-05-09T02:42:44.182Z,4.90
2023-05-09T02:45:16.080Z,4.55
2023-05-09T02:47:48.044Z,4.88
2023-05-09T02:50:20.046Z,4.32
2023-05-09T02:52:51.978Z,5.00
2023-05-09T02:55:23.857Z,4.75
2023-05-09T02:58:09.381Z,5.07
2023-05-09T03:00:48.351Z,4.93
2023-05-09T03:03:22.157Z,4.65
2023-05-09T03:05:55.268Z,4.95
2023-05-09T03:08:27.186Z,4.75
2023-05-09T03:10:59.692Z,4.60
2023-05-09T03:13:31.556Z,4.70
2023-05-09T03:16:03.762Z,4.95
2023-05-09T03:18:35.598Z,4.80
2023-05-09T03:21:07.396Z,4.50
2023-05-09T03:23:41.091Z,4.63
2023-05-09T03:26:13.774Z,5.15
2023-05-09T03:28:46.473Z,4.95
2023-05-09T03:31:19.422Z,5.40
2023-05-09T03:33:51.313Z,5.05
2023-05-09T03:36:23.662Z,5.00
2023-05-09T03:38:55.782Z,5.03
2023-05-09T03:41:28.476Z,5.22
2023-05-09T03:44:01.936Z,5.25
2023-05-09T03:46:33.802Z,5.22
2023-05-09T03:49:06.045Z,6.07
2023-05-09T03:51:41.315Z,5.20
2023-05-09T03:54:17.908Z,5.50
2023-05-09T03:56:49.655Z,5.38
2023-05-09T03:59:21.577Z,5.30
2023-05-09T04:01:54.001Z,5.40
2023-05-09T04:04:28.417Z,5.20
2023-05-09T04:07:01.099Z,5.13
2023-05-09T04:09:32.998Z,5.13
2023-05-09T04:12:05.309Z,4.90
2023-05-09T04:14:38.896Z,5.07
2023-05-09T04:17:10.835Z,4.93
2023-05-09T04:19:42.773Z,4.65
2023-05-09T04:22:14.703Z,5.60
2023-05-09T04:24:46.554Z,4.95
2023-05-09T04:27:18.683Z,5.00
2023-05-09T04:29:51.631Z,5.00
2023-05-09T04:32:23.485Z,5.25
2023-05-09T04:34:56.056Z,4.55
2023-05-09T04:37:32.792Z,4.50
2023-05-09T04:40:09.369Z,4.55
2023-05-09T04:42:48.332Z,4.70
2023-05-09T04:45:23.433Z,4.70
2023-05-09T04:47:56.032Z,5.20
2023-05-09T04:50:28.188Z,5.07
2023-05-09T04:52:59.982Z,3.97
2023-05-09T04:55:32.266Z,4.57
2023-05-09T04:58:04.036Z,5.00
2023-05-09T05:00:36.232Z,4.85
2023-05-09T05:03:08.861Z,4.68
2023-05-09T05:05:41.704Z,4.78
2023-05-09T05:08:13.857Z,5.10
2023-05-09T05:10:49.023Z,4.65
2023-05-09T05:15:59.077Z,5.15
2023-05-09T05:18:31.100Z,5.07
2023-05-09T05:21:03.628Z,5.43
2023-05-09T05:23:35.389Z,5.20
2023-05-09T05:26:07.908Z,4.65
2023-05-09T05:28:40.979Z,7.28
2023-05-09T05:31:12.905Z,4.95
2023-05-09T05:33:44.781Z,4.90
2023-05-09T05:36:16.558Z,4.53
2023-05-09T05:38:48.343Z,4.72
2023-05-09T05:41:20.904Z,4.57
2023-05-09T05:43:54.521Z,4.07
2023-05-09T05:46:29.216Z,4.45
2023-05-09T05:49:01.193Z,4.40
2023-05-09T05:51:33.442Z,3.53
2023-05-09T05:54:06.137Z,4.20
2023-05-09T05:56:38.964Z,4.15
2023-05-09T05:59:13.199Z,3.40
2023-05-09T06:01:45.556Z,3.90
2023-05-09T06:04:17.833Z,3.53
2023-05-09T06:06:49.707Z,4.00
2023-05-09T06:09:22.068Z,3.60
2023-05-09T06:11:54.148Z,4.30
2023-05-09T06:14:26.255Z,4.03
2023-05-09T06:16:59.270Z,3.83
2023-05-09T06:19:34.367Z,3.83
2023-05-09T06:22:06.217Z,3.70
2023-05-09T06:24:38.143Z,4.18
2023-05-09T06:27:09.986Z,4.57
2023-05-09T06:29:41.682Z,3.83
2023-05-09T06:32:13.388Z,3.90
2023-05-09T06:34:45.339Z,3.80
2023-05-09T06:37:17.109Z,3.60
2023-05-09T06:39:50.327Z,4.00
2023-05-09T06:42:22.035Z,4.20
2023-05-09T06:44:54.199Z,4.03
2023-05-09T06:47:26.204Z,3.72
2023-05-09T06:49:57.949Z,3.88
2023-05-09T06:52:30.365Z,4.10
2023-05-09T06:55:02.384Z,4.25
2023-05-09T06:57:34.189Z,4.10
2023-05-09T07:00:06.824Z,4.30
2023-05-09T07:02:41.738Z,4.10
2023-05-09T07:05:14.189Z,3.60
2023-05-09T07:07:46.193Z,3.80
2023-05-09T07:10:17.978Z,4.68
2023-05-09T07:12:50.742Z,3.80
2023-05-09T07:15:32.902Z,3.67
2023-05-09T07:18:12.088Z,3.78
2023-05-09T07:20:44.878Z,3.85
2023-05-09T07:23:16.746Z,3.88
2023-05-09T07:25:48.643Z,3.95
2023-05-09T07:28:20.985Z,4.40
2023-05-09T07:30:55.068Z,3.63
2023-05-09T07:33:26.936Z,4.07
2023-05-09T07:35:59.979Z,3.65
2023-05-09T07:38:31.760Z,3.63
2023-05-09T07:41:03.549Z,3.72
2023-05-09T07:43:35.370Z,3.50
2023-05-09T07:46:07.279Z,3.50
2023-05-09T07:48:39.242Z,3.83
2023-05-09T07:51:11.020Z,4.10
2023-05-09T07:53:42.695Z,3.70
2023-05-09T07:56:14.520Z,3.78
2023-05-09T07:58:46.290Z,3.97
2023-05-09T08:01:19.324Z,3.70
2023-05-09T08:03:51.234Z,3.63
2023-05-09T08:06:25.135Z,3.67
2023-05-09T08:08:56.888Z,3.70
2023-05-09T08:11:29.046Z,3.95
2023-05-09T08:14:00.807Z,3.53
2023-05-09T08:16:32.676Z,4.40
2023-05-09T08:19:04.525Z,3.40
2023-05-09T08:21:36.481Z,3.63
2023-05-09T08:24:09.693Z,3.40
2023-05-09T08:26:41.492Z,3.40
2023-05-09T08:29:13.258Z,3.67
2023-05-09T08:31:45.148Z,4.00
2023-05-09T08:34:16.900Z,3.42
2023-05-09T08:36:51.426Z,3.65
2023-05-09T08:39:23.155Z,3.40
2023-05-09T08:41:59.064Z,3.28
2023-05-09T08:44:32.151Z,3.38
2023-05-09T08:47:04.809Z,4.45
2023-05-09T08:49:36.756Z,3.13
2023-05-09T08:52:08.962Z,3.38
2023-05-09T08:54:40.765Z,3.22
2023-05-09T08:57:13.419Z,3.72
2023-05-09T08:59:46.565Z,3.20
2023-05-09T09:02:19.447Z,3.60
2023-05-09T09:04:51.413Z,3.50
2023-05-09T09:07:25.790Z,3.58
2023-05-09T09:09:58.898Z,4.90
2023-05-09T09:12:31.696Z,3.90
2023-05-09T09:15:05.818Z,3.35
2023-05-09T09:17:42.849Z,3.33
2023-05-09T09:20:16.649Z,3.50
2023-05-09T09:22:51.680Z,3.45
2023-05-09T09:25:23.450Z,4.45
2023-05-09T09:27:55.504Z,3.50
2023-05-09T09:30:27.582Z,3.45
2023-05-09T09:33:00.579Z,3.42
2023-05-09T09:35:39.533Z,3.40
2023-05-09T09:38:11.564Z,3.25
2023-05-09T09:41:03.812Z,3.60
2023-05-09T09:43:35.762Z,3.83
2023-05-09T09:46:07.810Z,3.50
2023-05-09T09:48:39.991Z,3.83
2023-05-09T09:51:13.035Z,3.50
2023-05-09T09:53:45.382Z,3.60
2023-05-09T09:56:17.249Z,3.65
2023-05-09T09:58:49.277Z,3.38
2023-05-09T10:01:21.212Z,3.30
2023-05-09T10:03:55.801Z,3.40
2023-05-09T10:06:27.676Z,3.53
2023-05-09T10:08:59.654Z,3.22
2023-05-09T10:11:32.874Z,3.50
2023-05-09T10:14:04.743Z,3.70
2023-05-09T10:16:43.701Z,3.58
2023-05-09T10:19:19.173Z,3.67
2023-05-09T10:21:55.909Z,3.28
2023-05-09T10:24:39.839Z,2.80
2023-05-09T10:27:13.013Z,2.90
2023-05-09T10:29:49.325Z,2.63
2023-05-09T10:32:27.212Z,3.35
2023-05-09T10:35:08.322Z,3.33
2023-05-09T10:37:41.046Z,3.20
2023-05-09T10:40:15.793Z,3.15
2023-05-09T10:42:47.939Z,3.53
2023-05-09T10:45:21.905Z,3.28
2023-05-09T10:47:56.607Z,3.40
2023-05-09T10:50:28.642Z,3.05
2023-05-09T10:53:04.002Z,3.08
2023-05-09T10:55:56.155Z,3.10
2023-05-09T10:58:37.540Z,3.30
2023-05-09T11:01:10.866Z,3.28
2023-05-09T11:04:02.312Z,3.70
2023-05-09T11:06:55.159Z,3.03
2023-05-09T11:09:33.427Z,3.30
2023-05-09T11:12:05.587Z,3.10
2023-05-09T11:14:56.116Z,3.13
2023-05-09T11:17:30.620Z,3.30
2023-05-09T11:20:06.870Z,3.20
2023-05-09T11:22:42.034Z,3.45
2023-05-09T11:25:15.480Z,3.20
2023-05-09T11:27:49.901Z,2.80
2023-05-09T11:30:21.648Z,3.10
2023-05-09T11:32:55.611Z,2.90
2023-05-09T11:35:28.027Z,3.00
2023-05-09T11:38:06.032Z,2.97
2023-05-09T11:40:40.017Z,2.95
2023-05-09T11:43:13.096Z,3.30
2023-05-09T11:45:46.435Z,3.00
2023-05-09T11:48:22.693Z,3.50
2023-05-09T11:50:54.448Z,3.35
2023-05-09T11:53:26.294Z,3.15
2023-05-09T11:55:58.145Z,3.30
2023-05-09T11:58:30.012Z,2.83
2023-05-09T12:01:01.939Z,3.00
2023-05-09T12:03:33.985Z,3.50
2023-05-09T12:06:06.380Z,3.40
2023-05-09T12:08:38.227Z,3.50
2023-05-09T12:11:11.135Z,3.25
2023-05-09T12:13:50.944Z,2.97
2023-05-09T12:16:22.953Z,3.22
2023-05-09T12:19:02.904Z,2.78
2023-05-09T12:21:34.608Z,2.70
2023-05-09T12:24:06.474Z,3.08
2023-05-09T12:26:39.909Z,2.90
2023-05-09T12:29:13.778Z,3.05
2023-05-09T12:31:46.815Z,2.97
2023-05-09T12:34:22.126Z,3.17
2023-05-09T12:36:56.791Z,3.03
2023-05-09T12:39:32.312Z,2.95
2023-05-09T12:42:12.824Z,3.35
2023-05-09T12:44:50.063Z,3.63
2023-05-09T12:47:21.876Z,3.35
2023-05-09T12:49:53.669Z,3.10
2023-05-09T12:52:34.504Z,3.20
2023-05-09T12:55:13.846Z,2.67
2023-05-09T12:57:58.337Z,2.92
2023-05-09T13:00:42.847Z,3.13
2023-05-09T13:03:26.080Z,3.08
2023-05-09T13:06:02.208Z,2.72
2023-05-09T13:08:34.345Z,2.75
2023-05-09T13:11:15.477Z,3.10
2023-05-09T13:13:49.223Z,2.72
2023-05-09T13:16:22.376Z,4.13
2023-05-09T13:18:54.197Z,5.10
2023-05-09T13:21:26.112Z,4.43
2023-05-09T13:23:59.265Z,2.95
2023-05-09T13:26:31.617Z,2.80
2023-05-09T13:29:03.620Z,3.22
2023-05-09T13:31:35.526Z,3.40
2023-05-09T13:34:07.230Z,3.40
2023-05-09T13:36:39.013Z,2.90
2023-05-09T13:39:10.727Z,2.65
2023-05-09T13:41:42.432Z,2.33
2023-05-09T13:44:15.254Z,2.50
2023-05-09T13:46:47.174Z,3.15
2023-05-09T13:49:19.779Z,2.53
2023-05-09T13:51:51.718Z,3.35
2023-05-09T13:54:23.563Z,2.40
2023-05-09T13:56:58.661Z,3.20
2023-05-09T13:59:31.604Z,2.70
2023-05-09T14:02:06.253Z,2.95
2023-05-09T14:04:41.160Z,2.60
2023-05-09T14:07:16.826Z,2.60
2023-05-09T14:09:51.960Z,2.90
2023-05-09T14:12:25.980Z,2.58
2023-05-09T14:15:00.351Z,3.20
2023-05-09T14:17:32.174Z,2.85
2023-05-09T14:20:04.214Z,2.85
2023-05-09T14:22:36.014Z,2.58
2023-05-09T14:25:08.160Z,2.70
2023-05-09T14:27:40.008Z,2.40
2023-05-09T14:30:12.214Z,3.17
2023-05-09T14:32:43.971Z,3.78
2023-05-09T14:35:16.258Z,2.92
2023-05-09T14:37:48.194Z,2.80
2023-05-09T14:40:21.075Z,2.70
2023-05-09T14:42:52.849Z,2.50
2023-05-09T14:45:25.223Z,2.95
2023-05-09T14:47:59.182Z,2.78
2023-05-09T14:50:31.402Z,3.10
2023-05-09T14:53:03.859Z,2.40
2023-05-09T14:55:36.270Z,2.55
2023-05-09T14:58:09.543Z,2.60
2023-05-09T15:00:41.919Z,2.50
2023-05-09T15:03:14.042Z,2.85
2023-05-09T15:05:45.857Z,3.60
2023-05-09T15:08:17.967Z,3.08
2023-05-09T15:10:50.918Z,2.70
2023-05-09T15:13:22.748Z,3.28
2023-05-09T15:15:55.572Z,3.20
2023-05-09T15:18:28.816Z,3.20
2023-05-09T15:21:03.167Z,2.70
2023-05-09T15:23:35.512Z,2.70
2023-05-09T15:26:13.745Z,2.60
2023-05-09T15:28:45.658Z,2.58
2023-05-09T15:31:21.597Z,2.70
2023-05-09T15:33:53.464Z,2.35
2023-05-09T15:36:25.224Z,3.55
2023-05-09T15:38:57.187Z,2.78
2023-05-09T15:41:29.160Z,2.80
2023-05-09T15:44:00.936Z,2.50
2023-05-09T15:46:36.209Z,2.67
2023-05-09T15:49:08.035Z,2.38
2023-05-09T15:51:40.034Z,2.60
2023-05-09T15:54:11.770Z,2.45
2023-05-09T15:56:43.616Z,2.35
2023-05-09T15:59:15.424Z,2.35
2023-05-09T16:01:47.305Z,2.35
2023-05-09T16:04:19.198Z,2.75
2023-05-09T16:06:53.514Z,3.10
2023-05-09T16:09:25.592Z,2.63
2023-05-09T16:11:57.442Z,2.75
2023-05-09T16:14:29.637Z,2.78
2023-05-09T16:17:02.597Z,3.03
2023-05-09T16:19:36.555Z,2.53
2023-05-09T16:22:08.380Z,2.70
2023-05-09T16:24:40.235Z,2.63
2023-05-09T16:27:14.410Z,2.80
2023-05-09T16:29:46.210Z,2.80
2023-05-09T16:32:17.940Z,2.53
2023-05-09T16:34:49.922Z,2.67
2023-05-09T16:37:21.781Z,2.70
2023-05-09T16:39:53.786Z,2.70
2023-05-09T16:42:28.521Z,2.58
2023-05-09T16:45:00.407Z,2.95
2023-05-09T16:47:32.183Z,2.70
2023-05-09T16:50:05.339Z,2.75
2023-05-09T16:52:37.156Z,2.78
2023-05-09T16:55:09.032Z,3.10
2023-05-09T16:57:40.771Z,2.45
2023-05-09T17:00:13.107Z,2.60
2023-05-09T17:02:45.058Z,2.60
2023-05-09T17:05:17.175Z,2.47
2023-05-09T17:07:49.123Z,2.70
2023-05-09T17:10:20.965Z,2.47
2023-05-09T17:12:53.344Z,3.00
2023-05-09T17:15:25.623Z,2.45
2023-05-09T17:17:57.513Z,2.90
2023-05-09T17:20:29.981Z,2.90
2023-05-09T18:24:02.332Z,2.85
2023-05-09T18:26:36.743Z,2.75
2023-05-09T18:29:09.558Z,2.90
2023-05-09T18:31:41.789Z,2.97
2023-05-09T18:34:13.610Z,2.70
2023-05-09T18:36:45.382Z,2.70
2023-05-09T18:39:17.142Z,2.60
2023-05-09T18:41:49.972Z,2.97
2023-05-09T18:44:21.806Z,2.67
2023-05-09T18:46:54.158Z,2.88
2023-05-09T18:49:26.848Z,2.50
2023-05-09T18:52:00.147Z,2.70
2023-05-09T18:54:32.456Z,2.58
2023-05-09T18:57:04.607Z,2.97
2023-05-09T18:59:36.693Z,2.97
2023-05-09T19:02:09.134Z,3.33
2023-05-09T19:04:42.434Z,3.05
2023-05-09T19:07:15.086Z,3.10
2023-05-09T19:09:46.915Z,2.80
2023-05-09T19:12:19.228Z,3.22
2023-05-09T19:14:50.970Z,3.00
2023-05-09T19:17:22.706Z,3.20
2023-05-09T19:19:54.617Z,3.13
2023-05-09T19:22:26.486Z,3.20
2023-05-09T19:24:58.865Z,2.72
2023-05-09T19:27:30.648Z,2.55
2023-05-09T19:30:05.004Z,2.88
2023-05-09T19:32:36.856Z,3.00
2023-05-09T19:35:09.505Z,2.58
2023-05-09T19:37:41.285Z,3.28
2023-05-09T19:40:13.398Z,2.78
2023-05-09T19:42:45.279Z,2.88
2023-05-09T19:45:18.667Z,3.10
2023-05-09T19:47:54.842Z,3.05
2023-05-09T19:50:26.885Z,3.03
2023-05-09T19:52:59.302Z,2.80
2023-05-09T19:55:31.101Z,3.10
2023-05-09T19:58:03.103Z,3.20
2023-05-09T20:00:36.051Z,2.90
2023-05-09T20:03:08.296Z,3.10
2023-05-09T20:05:43.423Z,2.67
2023-05-09T20:08:15.180Z,3.20
2023-05-09T20:10:47.013Z,3.20
2023-05-09T20:13:18.746Z,2.90
2023-05-09T20:15:52.998Z,3.05
2023-05-09T20:18:24.824Z,3.55
2023-05-09T20:20:56.650Z,2.88
2023-05-09T20:23:29.026Z,3.13
2023-05-09T20:26:01.429Z,3.35
2023-05-09T20:28:33.183Z,3.22
2023-05-09T20:31:04.885Z,3.28
2023-05-09T20:33:36.631Z,3.08
2023-05-09T20:36:09.524Z,3.40
2023-05-09T20:38:41.280Z,2.80
2023-05-09T20:41:13.203Z,3.20
2023-05-09T20:43:44.918Z,3.50
2023-05-09T20:46:17.401Z,3.00
2023-05-09T20:48:49.693Z,3.53
2023-05-09T20:51:21.434Z,3.33
2023-05-09T20:53:53.159Z,2.85
2023-05-09T20:56:28.816Z,3.20
2023-05-09T20:59:01.115Z,2.92
2023-05-09T21:01:36.685Z,3.10
2023-05-09T21:04:08.593Z,3.33
2023-05-09T21:06:40.465Z,4.15
2023-05-09T21:09:12.218Z,3.08
2023-05-09T21:11:46.404Z,4.10
2023-05-09T21:14:18.102Z,3.40
2023-05-09T21:16:51.740Z,3.40
2023-05-09T21:19:24.161Z,3.90
2023-05-09T21:21:58.822Z,3.50
2023-05-09T21:27:02.279Z,3.72
2023-05-09T21:29:34.067Z,4.38
2023-05-09T21:32:06.105Z,3.97
2023-05-09T21:34:38.963Z,3.50
2023-05-09T21:37:10.795Z,3.13
2023-05-09T21:39:45.461Z,3.42
2023-05-09T21:44:50.826Z,3.13
2023-05-09T21:47:22.705Z,3.35
2023-05-09T21:49:54.885Z,3.33
2023-05-09T21:52:26.639Z,3.30
2023-05-09T21:54:59.625Z,3.10
2023-05-09T21:57:31.530Z,3.50
2023-05-09T22:00:05.668Z,3.28
2023-05-09T22:02:44.942Z,3.28
2023-05-09T22:05:16.790Z,3.50
2023-05-09T22:07:48.593Z,3.55
2023-05-09T22:10:23.453Z,3.42
2023-05-09T22:12:55.285Z,3.60
2023-05-09T22:15:27.897Z,3.70
2023-05-09T22:18:02.329Z,3.30
2023-05-09T22:20:34.368Z,2.85
2023-05-09T22:23:06.124Z,3.70
2023-05-09T22:25:38.055Z,3.40
2023-05-09T22:28:13.559Z,3.35
2023-05-09T22:30:45.566Z,3.58
2023-05-09T22:33:17.369Z,3.53
2023-05-09T22:35:49.130Z,3.40
2023-05-09T22:38:20.822Z,3.55
2023-05-09T22:40:55.688Z,3.50
2023-05-09T22:43:33.846Z,3.50
2023-05-09T22:46:10.790Z,3.30
2023-05-09T22:48:44.748Z,3.40
2023-05-09T22:51:16.628Z,3.28
2023-05-09T22:54:44.828Z,3.10
2023-05-09T22:57:35.243Z,3.00
2023-05-09T23:00:25.616Z,3.55
2023-05-09T23:02:59.390Z,3.30
2023-05-09T23:09:18.133Z,3.30
2023-05-09T23:11:49.836Z,3.60
2023-05-09T23:14:21.844Z,3.47
2023-05-09T23:16:53.687Z,3.40
2023-05-09T23:19:25.525Z,3.67
2023-05-09T23:21:59.064Z,3.05
2023-05-09T23:24:30.865Z,3.47
2023-05-09T23:27:02.875Z,3.22
2023-05-09T23:29:35.184Z,3.67
2023-05-09T23:32:07.230Z,3.15
2023-05-09T23:34:39.167Z,2.90
2023-05-09T23:37:12.058Z,3.25
2023-05-09T23:39:43.940Z,3.53
2023-05-09T23:42:15.872Z,3.50
2023-05-09T23:44:47.853Z,3.72
2023-05-09T23:47:19.832Z,3.50
2023-05-09T23:49:51.600Z,4.03
2023-05-09T23:52:23.476Z,3.25
2023-05-09T23:54:55.405Z,3.92
2023-05-09T23:57:27.138Z,3.78
2023-05-09T23:59:58.869Z,3.38
